Time;durP1;ratioP1;P1;durP2;ratioP2;P2;SDS_P1;SDS_P2;PMS_P1;PMS_P2;Temp;Humidity;BMP_temperature;BMP_pressure;BME280_temperature;BME280_humidity;BME280_pressure;Samples;Min_cycle;Max_cycle;Signal;HPM_P1;HPM_P2
2023/09/29 00:00:14;;;;;;;6.70;3.77;;;26.00;66.10;;;;;;5052805;27;88954;-55
2023/09/29 00:02:42;;;;;;;6.40;3.50;;;26.00;66.90;;;;;;5052420;27;87741;-54
2023/09/29 00:05:17;;;;;;;5.37;3.53;;;26.00;66.00;;;;;;5050336;27;87347;-54
2023/09/29 00:07:47;;;;;;;8.83;4.60;;;26.00;66.00;;;;;;5050283;27;88569;-54
2023/09/29 00:10:16;;;;;;;5.60;3.43;;;26.00;65.90;;;;;;5052453;27;88023;-54
2023/09/29 00:12:45;;;;;;;5.97;3.43;;;26.00;65.90;;;;;;5050335;27;87634;-54
2023/09/29 00:15:13;;;;;;;5.03;3.30;;;26.00;65.90;;;;;;5048753;27;87630;-54
2023/09/29 00:17:41;;;;;;;6.60;3.93;;;26.00;65.90;;;;;;5050935;27;88559;-54
2023/09/29 00:20:17;;;;;;;5.30;3.63;;;26.00;65.90;;;;;;5050208;27;87461;-55
2023/09/29 00:22:45;;;;;;;3.77;3.10;;;26.00;65.90;;;;;;5050894;27;87503;-54
2023/09/29 00:25:14;;;;;;;7.40;3.97;;;26.00;65.90;;;;;;5047432;27;87704;-54
2023/09/29 00:27:42;;;;;;;5.63;3.70;;;26.00;65.90;;;;;;5047885;27;88620;-54
2023/09/29 00:30:12;;;;;;;7.10;3.57;;;26.00;65.90;;;;;;5048995;27;88159;-54
2023/09/29 00:32:44;;;;;;;5.40;3.57;;;26.00;65.90;;;;;;5047961;27;87636;-54
2023/09/29 00:35:17;;;;;;;6.90;3.77;;;26.00;65.90;;;;;;5058519;27;87604;-54
2023/09/29 00:37:45;;;;;;;7.17;4.20;;;26.00;65.90;;;;;;5043891;27;88737;-54
2023/09/29 00:40:15;;;;;;;7.23;4.40;;;26.00;65.90;;;;;;5050121;27;87809;-54
2023/09/29 00:42:44;;;;;;;7.47;4.17;;;26.00;65.90;;;;;;5049759;27;87707;-54
2023/09/29 00:45:15;;;;;;;6.20;4.07;;;25.90;65.90;;;;;;5050376;27;87559;-54
2023/09/29 00:47:44;;;;;;;8.33;4.47;;;25.90;65.80;;;;;;5052818;27;88618;-54
2023/09/29 00:50:14;;;;;;;7.63;3.90;;;25.90;65.80;;;;;;5049186;27;89208;-54
2023/09/29 00:52:43;;;;;;;5.60;3.63;;;26.00;65.90;;;;;;5052117;27;87361;-54
2023/09/29 00:55:14;;;;;;;8.80;3.90;;;25.90;65.70;;;;;;5050295;27;88202;-55
2023/09/29 00:57:47;;;;;;;7.97;4.57;;;25.90;65.70;;;;;;5051756;27;88534;-55
2023/09/29 01:00:21;;;;;;;9.17;4.23;;;25.90;65.70;;;;;;5051807;27;88066;-54
2023/09/29 01:02:49;;;;;;;6.73;3.83;;;25.90;65.80;;;;;;5050219;27;87419;-54
2023/09/29 01:05:18;;;;;;;5.77;4.03;;;25.90;65.70;;;;;;5053165;27;87652;-54
2023/09/29 01:07:47;;;;;;;9.10;4.03;;;25.90;65.70;;;;;;5050253;27;88743;-54
2023/09/29 01:10:15;;;;;;;6.67;4.17;;;25.90;65.70;;;;;;5052509;27;88046;-54
2023/09/29 01:12:44;;;;;;;9.40;4.90;;;25.90;65.70;;;;;;5048685;27;87517;-54
2023/09/29 01:15:14;;;;;;;6.93;4.37;;;25.90;65.70;;;;;;5050655;27;87900;-54
2023/09/29 01:17:43;;;;;;;8.40;4.47;;;25.90;65.70;;;;;;5046911;27;90020;-54
2023/09/29 01:20:16;;;;;;;7.27;4.10;;;25.90;65.70;;;;;;5051121;27;89246;-55
2023/09/29 01:22:47;;;;;;;9.53;4.73;;;25.90;65.70;;;;;;5048727;27;87483;-55
2023/09/29 01:25:17;;;;;;;6.97;4.40;;;25.80;65.70;;;;;;5049990;27;87951;-55
2023/09/29 01:27:45;;;;;;;8.60;5.60;;;25.90;65.80;;;;;;5048787;27;88169;-55
2023/09/29 01:30:16;;;;;;;7.33;5.00;;;25.80;65.70;;;;;;5049345;27;88027;-55
2023/09/29 01:32:44;;;;;;;8.77;4.47;;;25.80;65.70;;;;;;5051105;27;87308;-55
2023/09/29 01:35:15;;;;;;;7.33;4.60;;;25.80;65.70;;;;;;5041778;27;87742;-55
2023/09/29 01:37:44;;;;;;;6.37;4.80;;;25.80;65.70;;;;;;5041350;28;88554;-55
2023/09/29 01:40:12;;;;;;;7.00;4.30;;;25.80;65.70;;;;;;5037093;28;88086;-55
2023/09/29 01:42:42;;;;;;;11.10;4.97;;;25.80;65.70;;;;;;5041435;28;87463;-55
2023/09/29 01:45:11;;;;;;;14.43;4.93;;;25.80;65.70;;;;;;5041192;28;87791;-55
2023/09/29 01:47:40;;;;;;;6.50;4.33;;;25.90;65.70;;;;;;5041809;28;88509;-55
2023/09/29 01:50:08;;;;;;;10.13;4.33;;;25.80;65.70;;;;;;5040576;28;89041;-55
2023/09/29 01:52:36;;;;;;;8.90;5.00;;;25.80;65.70;;;;;;5040836;27;87585;-55
2023/09/29 01:55:08;;;;;;;9.07;4.13;;;25.80;66.50;;;;;;5041625;28;87294;-55
2023/09/29 01:57:37;;;;;;;10.17;4.70;;;25.80;65.70;;;;;;5041703;27;88524;-55
2023/09/29 02:00:11;;;;;;;6.70;4.57;;;25.80;65.60;;;;;;5041345;27;87974;-55
2023/09/29 02:02:40;;;;;;;11.50;4.10;;;25.80;65.50;;;;;;5042212;27;87294;-55
2023/09/29 02:05:09;;;;;;;8.77;4.80;;;25.80;65.70;;;;;;5041407;28;87645;-55
2023/09/29 02:07:37;;;;;;;10.20;4.83;;;25.80;65.70;;;;;;5041711;27;88530;-55
2023/09/29 02:10:07;;;;;;;9.90;4.17;;;25.80;65.50;;;;;;5033929;28;87950;-55
2023/09/29 02:12:36;;;;;;;7.70;3.60;;;25.80;65.60;;;;;;5041362;27;87320;-55
2023/09/29 02:15:06;;;;;;;5.30;3.37;;;25.80;66.30;;;;;;5041103;28;87498;-55
2023/09/29 02:17:36;;;;;;;7.13;3.80;;;25.80;65.40;;;;;;5040624;28;88399;-55
2023/09/29 02:20:12;;;;;;;9.00;4.10;;;25.80;65.50;;;;;;5040613;28;89967;-55
2023/09/29 02:22:40;;;;;;;7.10;3.80;;;25.80;66.30;;;;;;5040921;28;87539;-55
2023/09/29 02:25:10;;;;;;;8.50;3.53;;;25.80;65.50;;;;;;5040739;28;87626;-55
2023/09/29 02:27:38;;;;;;;8.07;4.67;;;25.80;65.50;;;;;;5040754;28;87737;-55
2023/09/29 02:30:08;;;;;;;8.57;3.93;;;25.80;65.50;;;;;;5040501;28;88124;-55
2023/09/29 02:32:38;;;;;;;8.67;3.93;;;25.80;65.50;;;;;;5041098;28;87300;-55
2023/09/29 02:35:07;;;;;;;5.07;3.67;;;25.80;65.50;;;;;;5040728;27;87896;-55
2023/09/29 02:37:36;;;;;;;7.80;3.90;;;25.70;65.40;;;;;;5041174;27;88444;-55
2023/09/29 02:40:06;;;;;;;5.87;3.63;;;25.70;65.50;;;;;;5035327;28;88000;-55
2023/09/29 02:42:34;;;;;;;6.73;3.27;;;25.60;65.30;;;;;;5030537;28;87463;-55
2023/09/29 02:45:02;;;;;;;6.33;3.07;;;25.70;65.50;;;;;;5040096;28;87661;-55
2023/09/29 02:47:31;;;;;;;7.67;4.30;;;25.70;65.50;;;;;;5040693;27;88582;-55
2023/09/29 02:50:01;;;;;;;6.73;3.77;;;25.70;65.40;;;;;;5030596;27;87747;-55
2023/09/29 02:52:29;;;;;;;9.60;3.60;;;25.70;65.50;;;;;;5037808;28;87509;-55
2023/09/29 02:54:57;;;;;;;5.30;3.20;;;25.70;65.50;;;;;;5037615;27;87627;-55
2023/09/29 02:57:25;;;;;;;5.33;3.23;;;25.70;66.40;;;;;;5037379;28;89630;-55
2023/09/29 02:59:53;;;;;;;6.83;3.50;;;25.70;65.60;;;;;;5037323;28;88134;-55
2023/09/29 03:02:21;;;;;;;5.80;3.73;;;25.70;65.50;;;;;;5038101;28;88074;-55
2023/09/29 03:04:51;;;;;;;5.07;3.63;;;25.70;65.50;;;;;;5037259;27;87808;-55
2023/09/29 03:07:20;;;;;;;7.17;4.00;;;25.70;65.40;;;;;;5037742;28;88761;-55
2023/09/29 03:09:48;;;;;;;5.03;3.70;;;25.70;65.50;;;;;;5036319;28;88012;-55
2023/09/29 03:12:16;;;;;;;6.20;3.97;;;25.70;65.50;;;;;;5039021;28;87410;-55
2023/09/29 03:14:45;;;;;;;4.40;3.20;;;25.70;65.50;;;;;;5040702;28;87448;-55
2023/09/29 03:17:13;;;;;;;7.53;3.90;;;25.70;65.50;;;;;;5040659;27;88830;-55
2023/09/29 03:19:41;;;;;;;8.50;3.57;;;25.70;65.50;;;;;;5040261;28;88093;-55
2023/09/29 03:22:12;;;;;;;5.30;3.47;;;25.70;65.50;;;;;;5041316;28;87983;-55
2023/09/29 03:24:42;;;;;;;11.60;3.73;;;25.70;65.60;;;;;;5040727;28;87513;-55
2023/09/29 03:27:10;;;;;;;3.87;2.70;;;25.70;65.50;;;;;;5035219;28;89580;-55
2023/09/29 03:29:38;;;;;;;6.37;3.60;;;25.70;65.50;;;;;;5040421;28;89061;-55
2023/09/29 03:32:08;;;;;;;8.10;3.83;;;25.70;65.50;;;;;;5034953;28;87607;-55
2023/09/29 03:34:36;;;;;;;4.77;3.47;;;25.70;65.40;;;;;;5029933;28;87708;-55
2023/09/29 03:37:04;;;;;;;5.77;3.33;;;25.80;65.60;;;;;;5040239;27;89289;-55
2023/09/29 03:39:34;;;;;;;4.70;2.77;;;25.70;65.50;;;;;;5040722;28;87610;-55
2023/09/29 03:42:04;;;;;;;6.17;3.70;;;25.70;66.30;;;;;;5040577;28;87581;-55
2023/09/29 03:44:33;;;;;;;4.20;2.43;;;25.70;65.40;;;;;;5040464;28;87625;-55
2023/09/29 03:47:01;;;;;;;4.13;2.43;;;25.60;65.20;;;;;;5040288;28;88746;-55
2023/09/29 03:49:31;;;;;;;4.27;2.67;;;25.70;65.40;;;;;;5022533;28;88240;-55
2023/09/29 03:52:00;;;;;;;7.73;3.00;;;25.70;65.40;;;;;;5040470;28;87624;-55
2023/09/29 03:54:28;;;;;;;2.73;2.23;;;25.70;65.20;;;;;;5040581;28;87670;-55
2023/09/29 03:56:57;;;;;;;5.37;2.40;;;25.70;65.50;;;;;;5040017;28;87429;-55
2023/09/29 03:59:26;;;;;;;6.87;3.10;;;25.70;66.30;;;;;;5039869;27;88075;-55
2023/09/29 04:01:55;;;;;;;3.97;2.97;;;25.70;65.40;;;;;;5032821;28;87595;-55
2023/09/29 04:04:23;;;;;;;4.17;2.67;;;25.80;65.50;;;;;;5039719;28;87731;-55
2023/09/29 04:06:51;;;;;;;4.13;2.07;;;25.70;65.50;;;;;;5037628;28;88807;-55
2023/09/29 04:09:20;;;;;;;5.13;2.27;;;25.70;65.50;;;;;;5040475;28;88026;-55
2023/09/29 04:11:49;;;;;;;2.63;2.00;;;25.70;65.50;;;;;;5039822;28;87486;-55
2023/09/29 04:14:17;;;;;;;4.43;2.47;;;25.70;66.30;;;;;;5037649;27;87827;-55
2023/09/29 04:17:04;;;;;;;3.70;2.37;;;25.60;65.40;;;;;;5040028;27;89620;-55
2023/09/29 04:19:35;;;;;;;4.27;2.40;;;25.60;65.40;;;;;;5043229;27;88832;-55
2023/09/29 04:22:03;;;;;;;3.90;2.10;;;25.70;65.50;;;;;;5043374;27;87332;-55
2023/09/29 04:24:31;;;;;;;2.30;1.73;;;25.60;65.30;;;;;;5043246;27;87132;-55
2023/09/29 04:26:59;;;;;;;3.83;2.10;;;25.60;65.40;;;;;;5042504;27;89601;-55
2023/09/29 04:29:27;;;;;;;3.67;2.20;;;25.60;65.50;;;;;;5043067;28;88481;-55
2023/09/29 04:31:55;;;;;;;2.50;1.87;;;25.60;65.40;;;;;;5042910;28;87433;-55
2023/09/29 04:34:24;;;;;;;4.00;2.23;;;25.60;65.60;;;;;;5043645;27;87100;-55
2023/09/29 04:36:53;;;;;;;4.40;2.30;;;25.60;65.50;;;;;;5042837;27;88349;-55
2023/09/29 04:39:21;;;;;;;3.50;1.93;;;25.60;66.40;;;;;;5043075;27;88070;-55
2023/09/29 04:41:49;;;;;;;5.23;2.00;;;25.60;65.60;;;;;;5043219;27;87475;-55
2023/09/29 04:44:18;;;;;;;2.27;1.87;;;25.60;65.60;;;;;;5038844;27;88166;-55
2023/09/29 04:46:46;;;;;;;6.07;2.10;;;25.60;65.60;;;;;;5041399;28;88437;-55
2023/09/29 04:49:14;;;;;;;3.47;1.83;;;25.60;65.60;;;;;;5038720;28;88064;-55
2023/09/29 04:51:43;;;;;;;2.80;1.60;;;25.60;65.60;;;;;;5041989;28;88976;-55
2023/09/29 04:54:11;;;;;;;4.83;2.13;;;25.50;65.60;;;;;;5029109;27;87635;-54
2023/09/29 04:56:39;;;;;;;4.97;1.80;;;25.60;65.70;;;;;;5041457;28;89601;-54
2023/09/29 04:59:08;;;;;;;2.57;1.43;;;25.50;65.50;;;;;;5042166;28;88216;-55
2023/09/29 05:01:37;;;;;;;3.93;1.87;;;25.60;65.60;;;;;;5042603;28;87288;-55
2023/09/29 05:04:06;;;;;;;3.03;2.07;;;25.60;65.70;;;;;;5042769;27;87608;-55
2023/09/29 05:06:34;;;;;;;2.23;1.80;;;25.60;65.80;;;;;;5041873;28;89978;-57
2023/09/29 05:09:03;;;;;;;3.73;2.00;;;25.60;65.80;;;;;;5042316;27;89044;-57
2023/09/29 05:11:31;;;;;;;3.30;1.90;;;25.60;65.90;;;;;;5041943;28;87474;-58
2023/09/29 05:14:00;;;;;;;2.50;1.73;;;25.70;66.00;;;;;;5039291;28;87694;-55
2023/09/29 05:16:28;;;;;;;6.03;1.90;;;25.70;66.00;;;;;;5041674;28;87400;-54
2023/09/29 05:18:57;;;;;;;1.27;1.17;;;25.70;65.90;;;;;;5041931;27;89128;-54
2023/09/29 05:21:26;;;;;;;2.67;1.50;;;25.70;66.00;;;;;;5042013;28;87466;-54
2023/09/29 05:23:55;;;;;;;3.30;1.60;;;25.70;66.00;;;;;;5041407;28;87460;-54
2023/09/29 05:26:24;;;;;;;3.13;1.57;;;25.70;66.00;;;;;;5042194;28;87461;-54
2023/09/29 05:28:53;;;;;;;2.83;1.60;;;25.70;66.00;;;;;;5041806;28;90265;-54
2023/09/29 05:31:22;;;;;;;1.40;1.13;;;25.70;66.20;;;;;;5034770;28;87370;-54
2023/09/29 05:33:53;;;;;;;3.53;2.20;;;25.80;66.10;;;;;;5042371;28;87663;-54
2023/09/29 05:36:22;;;;;;;1.67;1.57;;;25.70;66.10;;;;;;5041459;28;88519;-54
2023/09/29 05:38:51;;;;;;;2.37;1.40;;;25.80;66.30;;;;;;5042044;28;89095;-54
2023/09/29 05:41:19;;;;;;;3.33;1.93;;;25.80;66.20;;;;;;5041672;27;87334;-55
2023/09/29 05:43:48;;;;;;;1.73;1.23;;;25.80;66.30;;;;;;5041928;28;87713;-54
2023/09/29 05:46:16;;;;;;;5.23;1.37;;;25.90;66.50;;;;;;5041802;28;88657;-54
2023/09/29 05:48:44;;;;;;;2.60;1.43;;;25.80;66.40;;;;;;5041458;28;88012;-55
2023/09/29 05:51:12;;;;;;;2.97;1.50;;;25.80;66.30;;;;;;5041665;28;87327;-54
2023/09/29 05:53:40;;;;;;;2.03;1.10;;;25.80;66.40;;;;;;5042178;27;87710;-55
2023/09/29 05:56:09;;;;;;;2.23;1.77;;;25.80;66.50;;;;;;5041883;28;89737;-54
2023/09/29 05:58:37;;;;;;;3.50;1.53;;;25.80;66.50;;;;;;5041067;28;89084;-58
2023/09/29 06:01:10;;;;;;;4.43;1.73;;;25.80;66.70;;;;;;5042034;28;87526;-54
2023/09/29 06:03:40;;;;;;;2.33;1.40;;;25.80;66.80;;;;;;5041743;28;87492;-54
2023/09/29 06:06:09;;;;;;;2.17;1.50;;;25.80;66.70;;;;;;5041486;28;88158;-54
2023/09/29 06:08:37;;;;;;;2.07;1.63;;;25.80;67.60;;;;;;5041512;28;88078;-54
2023/09/29 06:11:08;;;;;;;2.13;1.37;;;25.80;66.90;;;;;;5041416;28;87428;-54
2023/09/29 06:13:37;;;;;;;1.80;1.37;;;25.80;66.80;;;;;;5041495;28;87703;-54
2023/09/29 06:16:05;;;;;;;1.83;1.50;;;25.90;66.90;;;;;;5041130;28;88619;-54
2023/09/29 06:18:35;;;;;;;2.50;1.20;;;25.80;67.00;;;;;;5041100;28;89265;-54
2023/09/29 06:21:03;;;;;;;2.13;1.40;;;25.80;67.10;;;;;;5041417;28;87337;-54
2023/09/29 06:23:31;;;;;;;2.40;1.33;;;25.80;67.10;;;;;;5041349;28;87203;-54
2023/09/29 06:25:59;;;;;;;3.20;1.67;;;25.80;67.10;;;;;;5043674;27;88876;-54
2023/09/29 06:28:28;;;;;;;2.23;1.50;;;25.90;67.20;;;;;;5046136;27;87994;-54
2023/09/29 06:30:56;;;;;;;2.70;1.70;;;25.90;67.20;;;;;;5051735;27;87538;-54
2023/09/29 06:33:25;;;;;;;1.97;1.00;;;25.80;67.30;;;;;;5052013;27;87728;-54
2023/09/29 06:35:55;;;;;;;2.73;1.13;;;25.80;67.30;;;;;;5048933;27;89529;-54
2023/09/29 06:38:23;;;;;;;2.03;1.40;;;25.90;67.30;;;;;;5050063;27;89404;-54
2023/09/29 06:40:51;;;;;;;2.77;1.47;;;25.90;67.40;;;;;;5046030;27;88062;-54
2023/09/29 06:43:19;;;;;;;1.57;1.17;;;25.90;67.50;;;;;;5047766;27;87614;-53
2023/09/29 06:45:47;;;;;;;1.00;1.00;;;25.90;67.60;;;;;;5046168;27;88774;-54
2023/09/29 06:48:18;;;;;;;2.80;0.97;;;25.90;67.60;;;;;;5047717;27;88707;-54
2023/09/29 06:50:48;;;;;;;2.40;1.73;;;25.90;67.60;;;;;;5054758;27;87343;-53
2023/09/29 06:53:18;;;;;;;2.43;1.57;;;25.90;67.70;;;;;;5052626;27;87564;-52
2023/09/29 06:55:46;;;;;;;2.10;1.33;;;25.90;67.70;;;;;;5051964;27;88481;-53
2023/09/29 06:58:14;;;;;;;3.60;1.53;;;25.90;68.70;;;;;;5049498;27;87965;-53
2023/09/29 07:00:44;;;;;;;1.60;1.20;;;26.00;67.90;;;;;;5054391;27;87498;-53
2023/09/29 07:03:12;;;;;;;1.73;1.40;;;26.00;67.90;;;;;;5053604;27;88325;-53
2023/09/29 07:05:41;;;;;;;5.53;1.50;;;26.00;67.80;;;;;;5054017;27;88702;-53
2023/09/29 07:08:09;;;;;;;3.37;1.90;;;26.00;67.90;;;;;;5053292;27;88205;-53
2023/09/29 07:10:40;;;;;;;1.70;1.50;;;26.00;68.00;;;;;;5053812;27;87332;-53
2023/09/29 07:13:08;;;;;;;1.83;1.37;;;26.00;68.00;;;;;;5054979;27;88124;-53
2023/09/29 07:15:36;;;;;;;2.83;1.40;;;26.00;68.00;;;;;;5053207;27;89603;-53
2023/09/29 07:18:05;;;;;;;2.17;1.30;;;26.00;68.00;;;;;;5052376;27;87809;-53
2023/09/29 07:20:33;;;;;;;1.40;1.27;;;26.00;68.20;;;;;;5050364;27;88333;-53
2023/09/29 07:23:02;;;;;;;2.13;1.60;;;26.00;68.20;;;;;;5053237;27;87609;-53
2023/09/29 07:25:31;;;;;;;2.07;1.00;;;26.00;68.10;;;;;;5055069;27;89644;-53
2023/09/29 07:28:00;;;;;;;2.17;1.33;;;26.00;68.20;;;;;;5053464;27;88183;-52
2023/09/29 07:30:28;;;;;;;1.83;1.20;;;26.00;68.30;;;;;;5053309;27;87476;-53
2023/09/29 07:32:57;;;;;;;1.17;1.07;;;26.00;68.20;;;;;;5057528;27;87446;-53
2023/09/29 07:35:25;;;;;;;1.13;0.90;;;26.00;68.30;;;;;;5052616;27;88526;-53
2023/09/29 07:37:53;;;;;;;1.63;1.30;;;25.90;68.10;;;;;;5048429;27;87281;-53
2023/09/29 07:40:21;;;;;;;2.03;1.27;;;25.90;68.20;;;;;;5053533;27;87777;-53
2023/09/29 07:42:49;;;;;;;5.43;1.43;;;26.00;68.20;;;;;;5053251;27;87656;-53
2023/09/29 07:45:19;;;;;;;6.37;1.20;;;25.90;68.10;;;;;;5053705;27;88568;-53
2023/09/29 07:47:48;;;;;;;1.63;0.93;;;25.90;68.20;;;;;;5051870;27;88016;-53
2023/09/29 07:50:17;;;;;;;3.07;1.00;;;26.00;68.30;;;;;;5052325;27;89293;-54
2023/09/29 07:52:45;;;;;;;1.57;1.20;;;25.90;68.10;;;;;;5050662;27;87683;-53
2023/09/29 07:55:13;;;;;;;2.47;1.07;;;25.90;68.10;;;;;;5052273;27;88542;-54
2023/09/29 07:57:41;;;;;;;1.47;1.23;;;26.00;68.20;;;;;;5049075;27;88012;-53
2023/09/29 08:00:10;;;;;;;1.30;0.83;;;26.00;68.50;;;;;;5053590;27;87480;-53
2023/09/29 08:02:40;;;;;;;3.27;1.47;;;26.00;68.20;;;;;;5053903;27;87694;-53
2023/09/29 08:05:09;;;;;;;2.57;1.40;;;26.00;68.20;;;;;;5050704;27;89775;-52
2023/09/29 08:07:37;;;;;;;1.93;1.07;;;26.00;68.10;;;;;;5052066;27;88552;-53
2023/09/29 08:10:07;;;;;;;3.43;1.60;;;26.00;68.20;;;;;;5051793;27;87568;-52
2023/09/29 08:12:36;;;;;;;1.40;1.07;;;25.90;68.00;;;;;;5049859;27;87997;-52
2023/09/29 08:15:05;;;;;;;2.73;1.20;;;26.00;68.10;;;;;;5051930;27;88525;-52
2023/09/29 08:17:33;;;;;;;5.23;1.30;;;26.00;68.10;;;;;;5051075;27;88110;-53
2023/09/29 08:20:05;;;;;;;1.20;1.03;;;26.00;68.10;;;;;;5045284;27;87463;-52
2023/09/29 08:22:33;;;;;;;1.40;1.00;;;26.00;68.10;;;;;;5054068;27;88038;-54
2023/09/29 08:25:09;;;;;;;3.77;1.60;;;26.00;68.10;;;;;;5051035;27;88536;-54
2023/09/29 08:27:37;;;;;;;3.27;1.37;;;26.00;68.00;;;;;;5049505;27;88012;-55
2023/09/29 08:30:06;;;;;;;2.47;1.50;;;26.00;68.00;;;;;;5051511;27;87522;-55
2023/09/29 08:32:36;;;;;;;1.33;1.20;;;26.00;68.10;;;;;;5052301;27;87756;-54
2023/09/29 08:35:06;;;;;;;1.47;1.37;;;26.10;68.10;;;;;;5048724;27;88638;-54
2023/09/29 08:37:34;;;;;;;2.87;1.43;;;26.00;68.00;;;;;;5050645;27;88751;-55
2023/09/29 08:40:03;;;;;;;1.50;1.27;;;26.00;68.00;;;;;;5048969;27;88586;-58
2023/09/29 08:42:36;;;;;;;2.50;1.80;;;26.00;68.00;;;;;;5054047;27;87717;-58
2023/09/29 08:45:06;;;;;;;3.03;1.47;;;26.00;68.90;;;;;;5048901;27;88537;-58
2023/09/29 08:47:34;;;;;;;3.87;1.70;;;26.00;68.00;;;;;;5051889;27;88041;-58
2023/09/29 08:50:04;;;;;;;2.37;1.50;;;26.00;68.00;;;;;;5053486;27;87431;-58
2023/09/29 08:52:33;;;;;;;2.97;1.70;;;26.00;68.00;;;;;;5052598;27;87684;-58
2023/09/29 08:55:02;;;;;;;2.87;1.60;;;26.00;68.00;;;;;;5051249;27;87365;-58
2023/09/29 08:57:30;;;;;;;3.17;2.13;;;26.00;68.10;;;;;;5052352;27;87788;-58
2023/09/29 08:59:58;;;;;;;2.10;1.47;;;26.00;68.10;;;;;;5053479;27;87651;-58
2023/09/29 09:02:27;;;;;;;2.50;1.87;;;26.00;68.10;;;;;;5049679;27;87473;-59
2023/09/29 09:04:55;;;;;;;1.93;1.60;;;26.00;68.00;;;;;;5051856;27;88512;-58
2023/09/29 09:07:23;;;;;;;1.90;1.70;;;26.00;68.20;;;;;;5053191;27;88665;-58
2023/09/29 09:09:55;;;;;;;3.60;1.83;;;26.00;68.00;;;;;;5051589;27;87410;-59
2023/09/29 09:12:32;;;;;;;5.20;2.13;;;25.90;67.90;;;;;;5051264;27;87646;-59
2023/09/29 09:15:01;;;;;;;4.90;2.00;;;26.00;68.20;;;;;;5051197;27;88515;-59
2023/09/29 09:17:31;;;;;;;1.50;1.40;;;25.90;67.90;;;;;;5052332;27;89025;-61
2023/09/29 09:19:59;;;;;;;2.27;1.80;;;25.90;68.30;;;;;;5053325;27;87260;-61
2023/09/29 09:22:32;;;;;;;4.17;2.27;;;25.90;68.10;;;;;;5051515;27;87579;-59
2023/09/29 09:25:15;;;;;;;3.80;2.23;;;25.90;68.00;;;;;;5051259;27;89504;-59
2023/09/29 09:27:44;;;;;;;3.60;1.97;;;25.90;68.10;;;;;;5047656;27;89714;-59
2023/09/29 09:30:20;;;;;;;4.23;2.40;;;26.00;68.20;;;;;;5052458;27;87248;-59
2023/09/29 09:32:49;;;;;;;2.60;1.80;;;25.90;68.10;;;;;;5049958;27;87575;-59
2023/09/29 09:35:24;;;;;;;2.90;1.97;;;25.90;68.10;;;;;;5050782;27;89517;-59
2023/09/29 09:37:52;;;;;;;3.33;2.10;;;25.90;68.10;;;;;;5050522;27;88039;-59
2023/09/29 09:40:23;;;;;;;2.80;2.10;;;25.90;68.10;;;;;;5051109;27;87359;-59
2023/09/29 09:42:53;;;;;;;3.70;2.30;;;25.90;68.10;;;;;;5052024;27;87565;-59
2023/09/29 09:45:25;;;;;;;4.37;2.33;;;25.90;68.00;;;;;;5052813;27;89964;-59
2023/09/29 09:47:57;;;;;;;2.50;2.13;;;25.90;68.00;;;;;;5051974;27;89331;-59
2023/09/29 09:50:28;;;;;;;3.07;2.00;;;25.80;68.00;;;;;;5048175;27;87381;-59
2023/09/29 09:52:56;;;;;;;3.00;2.50;;;25.90;68.00;;;;;;5051100;27;87485;-59
2023/09/29 09:55:29;;;;;;;2.40;2.20;;;25.90;68.10;;;;;;5050703;27;89753;-59
2023/09/29 09:57:57;;;;;;;3.37;2.17;;;25.80;67.90;;;;;;5050822;27;87829;-58
2023/09/29 10:00:26;;;;;;;2.30;1.90;;;25.90;68.90;;;;;;5047084;27;87596;-58
2023/09/29 10:02:56;;;;;;;4.63;2.40;;;25.90;68.10;;;;;;5030216;28;87750;-59
2023/09/29 10:05:25;;;;;;;3.63;2.40;;;25.90;68.10;;;;;;5039784;27;88711;-59
2023/09/29 10:07:55;;;;;;;4.20;2.63;;;25.80;68.10;;;;;;5045720;27;88091;-59
2023/09/29 10:10:27;;;;;;;2.60;2.30;;;25.90;68.10;;;;;;5048350;27;87917;-59
2023/09/29 10:12:55;;;;;;;3.53;2.07;;;25.80;68.10;;;;;;5044804;27;87345;-59
2023/09/29 10:15:28;;;;;;;3.17;2.27;;;25.80;68.00;;;;;;5050619;27;89747;-59
2023/09/29 10:17:56;;;;;;;3.40;2.10;;;25.90;68.10;;;;;;5048772;27;88000;-60
2023/09/29 10:20:26;;;;;;;4.17;2.70;;;25.80;68.10;;;;;;5050223;27;88247;-60
2023/09/29 10:23:06;;;;;;;5.20;2.80;;;25.90;68.90;;;;;;5052159;27;87666;-59
2023/09/29 10:25:36;;;;;;;3.57;2.23;;;25.80;68.00;;;;;;5051699;27;88707;-60
2023/09/29 10:28:07;;;;;;;3.47;2.17;;;25.80;68.90;;;;;;5054019;27;88992;-59
2023/09/29 10:30:35;;;;;;;5.33;2.57;;;25.90;68.00;;;;;;5052316;27;87381;-59
2023/09/29 10:33:06;;;;;;;3.07;2.47;;;25.90;68.00;;;;;;5054425;27;87581;-59
2023/09/29 10:35:35;;;;;;;3.20;2.47;;;25.90;67.80;;;;;;5051463;27;89521;-59
2023/09/29 10:38:12;;;;;;;2.17;1.97;;;25.90;67.90;;;;;;5047746;27;87963;-59
2023/09/29 10:40:44;;;;;;;3.57;2.20;;;25.90;68.00;;;;;;5053553;27;87330;-60
2023/09/29 10:43:17;;;;;;;2.87;2.27;;;25.90;68.00;;;;;;5051219;27;87543;-60
2023/09/29 10:45:45;;;;;;;3.57;2.10;;;26.00;68.00;;;;;;5053829;27;88659;-59
2023/09/29 10:48:13;;;;;;;2.83;2.30;;;25.90;67.90;;;;;;5052284;27;88176;-59
2023/09/29 10:50:42;;;;;;;5.40;2.50;;;25.90;67.80;;;;;;5062060;27;87373;-59
2023/09/29 10:53:10;;;;;;;3.83;2.30;;;25.90;67.80;;;;;;5056063;27;87648;-59
2023/09/29 10:55:46;;;;;;;3.70;3.00;;;25.90;67.80;;;;;;5054616;27;89665;-59
2023/09/29 10:58:15;;;;;;;6.20;2.67;;;25.90;67.80;;;;;;5051333;27;88044;-58
2023/09/29 11:00:46;;;;;;;3.37;2.43;;;25.90;67.80;;;;;;5053502;27;87729;-60
2023/09/29 11:03:15;;;;;;;3.17;2.63;;;25.80;67.80;;;;;;5050929;27;87531;-59
2023/09/29 11:05:48;;;;;;;4.43;2.97;;;25.90;67.80;;;;;;5053697;27;87282;-60
2023/09/29 11:08:19;;;;;;;3.90;2.73;;;25.90;68.70;;;;;;5047961;27;88902;-59
2023/09/29 11:10:56;;;;;;;3.67;2.70;;;25.90;67.80;;;;;;5053168;27;87514;-60
2023/09/29 11:13:25;;;;;;;5.73;2.70;;;25.90;67.90;;;;;;5051936;27;87631;-58
2023/09/29 11:15:53;;;;;;;4.37;2.97;;;25.90;67.90;;;;;;5050992;27;88532;-59
2023/09/29 11:18:31;;;;;;;7.80;3.43;;;25.90;67.80;;;;;;5052402;27;88169;-60
2023/09/29 11:21:00;;;;;;;4.73;2.47;;;25.90;67.80;;;;;;5048992;27;88889;-59
2023/09/29 11:23:38;;;;;;;3.33;2.63;;;25.90;67.80;;;;;;5050980;27;87812;-59
2023/09/29 11:26:10;;;;;;;3.90;2.60;;;25.90;67.80;;;;;;5047328;27;88680;-59
2023/09/29 11:28:42;;;;;;;5.50;2.83;;;25.90;68.00;;;;;;5041813;28;88167;-59
2023/09/29 11:31:12;;;;;;;3.40;2.13;;;25.90;67.90;;;;;;5041861;28;89756;-59
2023/09/29 11:33:40;;;;;;;3.30;2.33;;;25.90;67.90;;;;;;5042308;28;87659;-59
2023/09/29 11:36:12;;;;;;;3.60;2.33;;;25.90;67.80;;;;;;5042623;28;89697;-59
2023/09/29 11:38:41;;;;;;;3.93;2.43;;;25.80;67.80;;;;;;5042896;27;88249;-59
2023/09/29 11:41:11;;;;;;;6.13;3.10;;;25.90;67.90;;;;;;5042780;28;87774;-59
2023/09/29 11:43:41;;;;;;;2.67;2.03;;;25.90;68.10;;;;;;5043165;27;87648;-59
2023/09/29 11:46:09;;;;;;;7.40;3.00;;;25.90;67.80;;;;;;5059307;27;89526;-59
2023/09/29 11:48:39;;;;;;;3.87;2.57;;;25.90;67.80;;;;;;5053386;27;88870;-59
2023/09/29 11:51:08;;;;;;;4.73;2.40;;;25.90;67.80;;;;;;5034868;27;88190;-58
2023/09/29 11:53:37;;;;;;;4.77;2.47;;;25.90;67.80;;;;;;5046597;27;87966;-58
2023/09/29 11:56:07;;;;;;;3.40;2.10;;;25.90;67.80;;;;;;5053183;27;88600;-58
2023/09/29 11:58:37;;;;;;;3.03;2.63;;;25.90;67.80;;;;;;5049460;27;88281;-58
2023/09/29 12:01:06;;;;;;;4.50;2.50;;;26.00;67.80;;;;;;5050571;27;88861;-56
2023/09/29 12:03:34;;;;;;;3.30;2.23;;;26.00;67.90;;;;;;5049409;27;87652;-56
2023/09/29 12:06:03;;;;;;;2.63;2.43;;;26.00;68.70;;;;;;5051475;27;88638;-57
2023/09/29 12:08:31;;;;;;;3.70;2.07;;;26.10;67.80;;;;;;5045221;27;87751;-57
2023/09/29 12:10:59;;;;;;;2.30;2.00;;;26.10;67.80;;;;;;5052860;27;87741;-57
2023/09/29 12:13:29;;;;;;;2.27;2.07;;;26.00;67.70;;;;;;5051690;27;87609;-56
2023/09/29 12:15:59;;;;;;;2.43;1.93;;;26.10;67.70;;;;;;5050660;27;88799;-57
2023/09/29 12:18:27;;;;;;;3.43;2.30;;;26.10;67.90;;;;;;5048588;27;90117;-56
2023/09/29 12:20:56;;;;;;;2.37;1.70;;;26.10;67.70;;;;;;5048260;27;89726;-55
2023/09/29 12:23:24;;;;;;;3.50;2.33;;;26.10;67.70;;;;;;5048354;27;87685;-56
2023/09/29 12:25:52;;;;;;;2.47;2.00;;;26.10;67.70;;;;;;5049358;27;88539;-56
2023/09/29 12:28:20;;;;;;;3.27;1.97;;;26.20;67.80;;;;;;5041872;27;87779;-56
2023/09/29 12:30:48;;;;;;;2.17;1.97;;;26.10;67.70;;;;;;5045107;27;88338;-56
2023/09/29 12:33:19;;;;;;;3.57;2.07;;;26.10;67.70;;;;;;5047600;27;88879;-56
2023/09/29 12:35:47;;;;;;;2.43;1.70;;;26.20;67.80;;;;;;5039951;27;90960;-56
2023/09/29 12:38:15;;;;;;;3.40;2.03;;;26.20;67.80;;;;;;5051468;27;88072;-56
2023/09/29 12:40:44;;;;;;;3.57;2.40;;;26.20;68.00;;;;;;5044662;27;87640;-56
2023/09/29 12:43:12;;;;;;;2.97;2.33;;;26.20;67.90;;;;;;5046029;27;89009;-56
2023/09/29 12:45:40;;;;;;;2.53;2.20;;;26.20;68.00;;;;;;5048191;27;87560;-56
2023/09/29 12:48:08;;;;;;;2.90;1.93;;;26.20;68.00;;;;;;5043282;27;89630;-55
2023/09/29 12:50:40;;;;;;;3.10;1.73;;;26.20;68.00;;;;;;5008084;28;87722;-56
2023/09/29 12:53:08;;;;;;;2.33;1.63;;;26.10;68.00;;;;;;5005393;28;87434;-56
2023/09/29 12:55:38;;;;;;;4.60;2.27;;;26.20;68.10;;;;;;5008476;28;88545;-56